createdAt,value
2023-01-18T00:00:37.739Z,49.33
2023-01-18T00:03:05.919Z,49.30
2023-01-18T00:05:35.274Z,50.20
2023-01-18T00:08:03.359Z,50.17
2023-01-18T00:10:31.442Z,50.97
2023-01-18T00:13:00.855Z,49.17
2023-01-18T00:15:28.960Z,49.77
2023-01-18T00:17:57.129Z,50.47
2023-01-18T00:20:27.401Z,50.07
2023-01-18T00:22:55.980Z,50.07
2023-01-18T00:25:25.512Z,51.10
2023-01-18T00:27:55.062Z,55.23
2023-01-18T00:30:26.688Z,55.93
2023-01-18T00:32:57.060Z,55.57
2023-01-18T00:35:25.951Z,56.40
2023-01-18T00:37:54.716Z,55.33
2023-01-18T00:40:23.852Z,54.20
2023-01-18T00:43:09.191Z,52.77
2023-01-18T00:45:38.696Z,51.37
2023-01-18T00:48:07.331Z,50.67
2023-01-18T00:50:35.483Z,50.60
2023-01-18T00:53:03.568Z,51.67
2023-01-18T00:55:31.629Z,50.47
2023-01-18T00:57:59.752Z,50.37
2023-01-18T01:00:27.834Z,53.43
2023-01-18T01:02:58.515Z,49.97
2023-01-18T01:05:46.157Z,49.53
2023-01-18T01:08:17.830Z,49.60
2023-01-18T01:10:47.258Z,51.93
2023-01-18T01:13:34.769Z,52.70
2023-01-18T01:16:23.978Z,51.03
2023-01-18T01:19:11.693Z,50.00
2023-01-18T01:21:57.558Z,51.80
2023-01-18T01:24:43.792Z,50.80
2023-01-18T01:27:12.593Z,49.77
2023-01-18T01:29:40.968Z,50.43
2023-01-18T01:32:09.217Z,51.00
2023-01-18T01:34:38.703Z,51.40
2023-01-18T01:37:07.276Z,54.23
2023-01-18T01:39:35.376Z,57.00
2023-01-18T01:42:03.490Z,58.33
2023-01-18T01:44:55.628Z,61.07
2023-01-18T01:47:29.346Z,62.67
2023-01-18T01:50:02.977Z,65.10
2023-01-18T01:52:34.209Z,65.03
2023-01-18T01:55:08.003Z,66.37
2023-01-18T01:57:38.923Z,65.77
2023-01-18T02:00:10.650Z,68.33
2023-01-18T02:02:39.641Z,70.93
2023-01-18T02:05:13.993Z,69.23
2023-01-18T02:07:42.606Z,69.63
2023-01-18T02:10:12.199Z,68.70
2023-01-18T02:12:42.271Z,68.90
2023-01-18T02:15:11.612Z,70.17
2023-01-18T02:18:07.971Z,69.53
2023-01-18T02:21:09.469Z,71.07
2023-01-18T02:24:15.294Z,70.50
2023-01-18T02:27:00.315Z,73.70
2023-01-18T02:29:45.626Z,73.90
2023-01-18T02:32:25.094Z,73.30
2023-01-18T02:34:58.523Z,73.77
2023-01-18T02:37:37.952Z,72.00
2023-01-18T02:40:16.943Z,75.40
2023-01-18T02:43:03.922Z,75.17
2023-01-18T02:45:53.163Z,75.07
2023-01-18T02:48:24.007Z,77.60
2023-01-18T02:50:52.865Z,77.00
2023-01-18T02:53:20.936Z,77.90
2023-01-18T02:55:54.846Z,78.07
2023-01-18T02:58:28.412Z,77.63
2023-01-18T03:01:03.890Z,79.67
2023-01-18T03:03:32.165Z,81.40
2023-01-18T03:06:02.351Z,80.47
2023-01-18T03:08:36.474Z,81.30
2023-01-18T03:11:09.043Z,83.03
2023-01-18T03:14:00.673Z,84.17
2023-01-18T03:16:40.098Z,83.10
2023-01-18T03:19:32.347Z,84.30
2023-01-18T03:22:01.812Z,84.50
2023-01-18T03:24:31.172Z,85.20
2023-01-18T03:27:17.804Z,85.17
2023-01-18T03:30:05.265Z,86.13
2023-01-18T03:32:52.962Z,89.50
2023-01-18T03:35:27.316Z,89.90
2023-01-18T03:37:57.464Z,89.60
2023-01-18T03:40:29.364Z,89.77
2023-01-18T03:43:04.507Z,89.40
2023-01-18T03:45:37.524Z,88.80
2023-01-18T03:48:09.954Z,91.40
2023-01-18T03:50:46.917Z,90.27
2023-01-18T03:53:20.543Z,90.07
2023-01-18T03:55:53.935Z,89.33
2023-01-18T03:58:29.658Z,88.20
2023-01-18T04:00:57.854Z,90.67
2023-01-18T04:03:27.369Z,91.30
2023-01-18T04:05:55.562Z,90.33
2023-01-18T04:08:23.720Z,89.63
2023-01-18T04:10:51.837Z,89.57
2023-01-18T04:13:20.063Z,91.80
2023-01-18T04:15:48.164Z,90.80
2023-01-18T04:18:16.600Z,92.07
2023-01-18T04:20:46.020Z,98.03
2023-01-18T04:23:14.117Z,93.10
2023-01-18T04:25:50.001Z,94.93
2023-01-18T04:28:25.251Z,95.47
2023-01-18T04:30:54.274Z,94.97
2023-01-18T04:33:23.326Z,94.67
2023-01-18T04:35:54.302Z,95.17
2023-01-18T04:38:22.523Z,94.07
2023-01-18T04:40:51.052Z,95.00
2023-01-18T04:43:19.409Z,97.87
2023-01-18T04:45:54.661Z,102.53
2023-01-18T04:48:22.936Z,97.33
2023-01-18T04:50:52.453Z,100.47
2023-01-18T04:53:21.234Z,98.73
2023-01-18T04:55:49.608Z,98.07
2023-01-18T04:58:17.895Z,96.70
2023-01-18T05:00:46.195Z,95.13
2023-01-18T05:03:14.423Z,97.27
2023-01-18T05:05:42.607Z,93.20
2023-01-18T05:08:12.141Z,93.80
2023-01-18T05:10:40.214Z,94.20
2023-01-18T05:13:08.353Z,94.57
2023-01-18T05:15:36.474Z,98.10
2023-01-18T05:18:05.546Z,97.67
2023-01-18T05:20:33.589Z,96.60
2023-01-18T05:23:10.556Z,96.80
2023-01-18T05:25:40.562Z,96.70
2023-01-18T05:28:09.555Z,99.70
2023-01-18T05:30:41.250Z,103.47
2023-01-18T05:33:10.201Z,94.03
2023-01-18T05:35:38.339Z,91.90
2023-01-18T05:38:06.514Z,91.20
2023-01-18T05:40:34.580Z,91.17
2023-01-18T05:43:04.009Z,91.13
2023-01-18T05:45:32.150Z,90.93
2023-01-18T05:48:00.408Z,89.43
2023-01-18T05:50:28.635Z,90.67
2023-01-18T05:52:58.732Z,90.50
2023-01-18T05:55:27.794Z,90.23
2023-01-18T05:57:55.970Z,90.13
2023-01-18T06:00:25.798Z,93.10
2023-01-18T06:02:54.466Z,93.47
2023-01-18T06:05:23.163Z,91.93
2023-01-18T06:07:51.287Z,90.30
2023-01-18T06:10:19.966Z,91.50
2023-01-18T06:12:48.269Z,94.30
2023-01-18T06:15:17.169Z,91.47
2023-01-18T06:17:47.389Z,92.00
2023-01-18T06:20:17.146Z,93.57
2023-01-18T06:22:46.643Z,95.27
2023-01-18T06:25:14.796Z,96.70
2023-01-18T06:27:43.121Z,96.50
2023-01-18T06:30:12.208Z,93.10
2023-01-18T06:32:40.288Z,89.23
2023-01-18T06:35:10.095Z,94.23
2023-01-18T06:37:38.179Z,89.70
2023-01-18T06:40:07.599Z,89.37
2023-01-18T06:42:35.698Z,90.27
2023-01-18T06:45:04.070Z,90.27
2023-01-18T06:47:32.291Z,94.23
2023-01-18T06:50:00.352Z,89.63
2023-01-18T06:52:29.818Z,93.00
2023-01-18T06:54:57.984Z,90.90
2023-01-18T06:57:26.172Z,92.87
2023-01-18T06:59:55.009Z,90.07
2023-01-18T07:02:23.111Z,90.87
2023-01-18T07:04:51.274Z,94.45
2023-01-18T07:07:19.492Z,92.40
2023-01-18T07:09:49.069Z,92.07
2023-01-18T07:12:17.543Z,94.23
2023-01-18T07:14:45.740Z,95.07
2023-01-18T07:17:13.951Z,93.70
2023-01-18T07:19:42.221Z,96.22
2023-01-18T07:22:10.447Z,95.10
2023-01-18T07:24:38.644Z,92.33
2023-01-18T07:27:08.183Z,88.80
2023-01-18T07:29:36.412Z,95.63
2023-01-18T07:32:04.907Z,93.00
2023-01-18T07:34:33.064Z,93.07
2023-01-18T07:37:01.394Z,94.13
2023-01-18T07:39:29.772Z,93.00
2023-01-18T07:41:57.916Z,88.00
2023-01-18T07:44:27.603Z,85.00
2023-01-18T07:46:55.787Z,88.50
2023-01-18T07:49:23.989Z,86.10
2023-01-18T07:51:52.121Z,88.07
2023-01-18T07:54:20.284Z,90.17
2023-01-18T07:56:48.320Z,91.47
2023-01-18T07:59:17.263Z,87.07
2023-01-18T08:01:46.878Z,89.47
2023-01-18T08:04:15.085Z,89.60
2023-01-18T08:06:43.224Z,88.87
2023-01-18T08:09:11.421Z,91.17
2023-01-18T08:11:39.658Z,91.10
2023-01-18T08:14:07.759Z,94.23
2023-01-18T08:16:35.960Z,89.70
2023-01-18T08:19:05.418Z,89.63
2023-01-18T08:21:33.627Z,89.47
2023-01-18T08:24:01.785Z,89.50
2023-01-18T08:26:30.053Z,90.53
2023-01-18T08:28:59.068Z,90.93
2023-01-18T08:31:27.515Z,91.10
2023-01-18T08:33:55.739Z,89.67
2023-01-18T08:36:26.925Z,88.27
2023-01-18T08:38:57.219Z,86.47
2023-01-18T08:41:28.423Z,83.73
2023-01-18T08:43:57.378Z,90.57
2023-01-18T08:46:26.997Z,87.53
2023-01-18T08:48:56.971Z,88.33
2023-01-18T08:51:26.933Z,86.83
2023-01-18T08:53:57.283Z,83.30
2023-01-18T08:56:26.627Z,86.13
2023-01-18T08:58:55.072Z,82.47
2023-01-18T09:01:24.799Z,89.30
2023-01-18T09:03:55.738Z,87.97
2023-01-18T09:06:23.955Z,90.07
2023-01-18T09:08:53.643Z,89.33
2023-01-18T09:11:22.730Z,84.63
2023-01-18T09:14:00.646Z,83.43
2023-01-18T09:16:30.333Z,91.40
2023-01-18T09:19:00.227Z,86.80
2023-01-18T09:21:29.698Z,91.00
2023-01-18T09:24:00.043Z,89.20
2023-01-18T09:26:30.866Z,88.70
2023-01-18T09:29:00.159Z,88.13
2023-01-18T09:31:30.998Z,89.43
2023-01-18T09:34:18.040Z,87.63
2023-01-18T09:36:51.893Z,86.83
2023-01-18T09:39:23.151Z,88.77
2023-01-18T09:41:54.849Z,86.60
2023-01-18T09:44:30.470Z,77.13
2023-01-18T09:47:04.997Z,84.00
2023-01-18T09:49:39.121Z,85.87
2023-01-18T09:52:21.284Z,85.10
2023-01-18T09:54:59.191Z,82.80
2023-01-18T09:57:44.937Z,82.67
2023-01-18T10:00:22.146Z,76.10
2023-01-18T10:02:55.743Z,84.00
2023-01-18T10:05:27.169Z,74.70
2023-01-18T10:08:04.124Z,71.80
2023-01-18T10:10:40.411Z,78.13
2023-01-18T10:13:33.923Z,78.03
2023-01-18T10:16:03.670Z,77.57
2023-01-18T10:18:32.757Z,77.10
2023-01-18T10:21:06.169Z,77.57
2023-01-18T10:23:42.128Z,77.70
2023-01-18T10:26:19.247Z,74.23
2023-01-18T10:28:53.662Z,71.63
2023-01-18T10:31:37.501Z,72.23
2023-01-18T10:34:15.721Z,70.20
2023-01-18T10:36:47.160Z,70.60
2023-01-18T10:39:28.840Z,69.37
2023-01-18T10:42:06.114Z,68.83
2023-01-18T10:44:35.337Z,68.00
2023-01-18T10:47:04.076Z,69.17
2023-01-18T10:49:38.593Z,68.90
2023-01-18T10:52:21.431Z,67.60
2023-01-18T10:54:55.998Z,65.90
2023-01-18T10:57:31.200Z,66.80
2023-01-18T11:00:01.091Z,67.40
2023-01-18T11:02:35.084Z,70.40
2023-01-18T11:05:17.982Z,66.83
2023-01-18T11:07:46.129Z,67.90
2023-01-18T11:10:26.011Z,64.13
2023-01-18T11:12:55.693Z,62.83
2023-01-18T11:15:29.244Z,57.47
2023-01-18T11:18:12.048Z,55.77
2023-01-18T11:20:49.957Z,55.60
2023-01-18T11:23:25.488Z,57.53
2023-01-18T11:25:58.200Z,56.60
2023-01-18T11:28:30.864Z,53.93
2023-01-18T11:31:06.340Z,55.63
2023-01-18T11:33:34.590Z,53.30
2023-01-18T11:36:04.527Z,50.50
2023-01-18T11:38:34.806Z,51.00
2023-01-18T11:41:16.249Z,46.63
2023-01-18T11:44:04.728Z,46.90
2023-01-18T11:46:40.087Z,44.07
2023-01-18T11:49:21.516Z,40.50
2023-01-18T11:51:55.607Z,42.50
2023-01-18T11:54:31.659Z,42.03
2023-01-18T11:57:03.068Z,41.77
2023-01-18T11:59:36.179Z,41.57
2023-01-18T12:02:34.239Z,43.13
2023-01-18T12:05:29.045Z,46.40
2023-01-18T12:08:11.645Z,47.40
2023-01-18T12:10:51.018Z,46.67
2023-01-18T12:13:37.083Z,45.00
2023-01-18T12:16:18.712Z,28.50
2023-01-18T12:19:23.333Z,27.27
2023-01-18T12:22:07.708Z,26.53
2023-01-18T12:24:49.606Z,27.40
2023-01-18T12:27:25.979Z,26.60
2023-01-18T12:30:12.242Z,28.97
2023-01-18T12:33:04.690Z,26.10
2023-01-18T12:35:51.824Z,25.37
2023-01-18T12:38:24.079Z,25.90
2023-01-18T12:41:27.973Z,26.60
2023-01-18T12:44:23.187Z,26.40
2023-01-18T12:47:03.959Z,25.67
2023-01-18T12:49:39.392Z,26.47
2023-01-18T12:52:18.593Z,26.67
2023-01-18T12:54:49.971Z,26.43
2023-01-18T12:57:19.714Z,28.83
2023-01-18T12:59:52.765Z,23.37
2023-01-18T13:02:33.216Z,24.27
2023-01-18T13:05:07.410Z,36.00
2023-01-18T13:07:40.345Z,34.07
2023-01-18T13:10:15.537Z,34.07
2023-01-18T13:12:44.859Z,34.60
2023-01-18T13:15:26.955Z,21.87
2023-01-18T13:18:02.747Z,20.57
2023-01-18T13:20:44.823Z,20.93
2023-01-18T13:23:25.431Z,19.97
2023-01-18T13:26:03.177Z,20.30
2023-01-18T13:28:31.380Z,19.90
2023-01-18T13:31:03.211Z,21.23
2023-01-18T13:33:34.457Z,19.70
2023-01-18T13:36:08.159Z,20.50
2023-01-18T13:38:41.945Z,19.90
2023-01-18T13:41:12.693Z,26.80
2023-01-18T13:44:03.845Z,18.50
2023-01-18T13:46:35.241Z,19.00
2023-01-18T13:49:37.598Z,18.70
2023-01-18T13:52:32.475Z,18.37
2023-01-18T13:55:05.645Z,18.50
2023-01-18T13:57:35.831Z,19.00
2023-01-18T14:00:07.410Z,18.37
2023-01-18T14:02:43.443Z,17.67
2023-01-18T14:05:25.349Z,17.80
2023-01-18T14:07:59.209Z,18.30
2023-01-18T14:10:33.302Z,19.27
2023-01-18T14:13:04.090Z,18.80
2023-01-18T14:15:52.436Z,19.37
2023-01-18T14:18:26.148Z,19.73
2023-01-18T14:21:12.968Z,19.07
2023-01-18T14:24:20.889Z,18.17
2023-01-18T14:26:53.837Z,19.13
2023-01-18T14:29:34.261Z,18.90
2023-01-18T14:32:06.649Z,19.30
2023-01-18T14:34:40.382Z,18.87
2023-01-18T14:37:29.652Z,18.90
2023-01-18T14:40:17.375Z,19.20
2023-01-18T14:42:50.401Z,18.63
2023-01-18T14:45:23.429Z,18.77
2023-01-18T14:47:52.684Z,19.17
2023-01-18T14:50:23.210Z,19.53
2023-01-18T14:52:54.033Z,19.57
2023-01-18T14:55:32.233Z,19.20
2023-01-18T14:58:11.448Z,20.00
2023-01-18T15:00:50.913Z,21.00
2023-01-18T15:03:26.382Z,20.73
2023-01-18T15:06:02.935Z,30.75
2023-01-18T15:08:35.156Z,22.50
2023-01-18T15:11:06.267Z,22.10
2023-01-18T15:13:42.000Z,21.40
2023-01-18T15:16:11.075Z,23.10
2023-01-18T15:18:42.133Z,22.17
2023-01-18T15:21:18.192Z,22.47
2023-01-18T15:23:47.195Z,23.40
2023-01-18T15:26:17.155Z,24.10
2023-01-18T15:28:46.031Z,23.80
2023-01-18T15:31:15.897Z,23.30
2023-01-18T15:33:46.682Z,23.37
2023-01-18T15:36:16.541Z,23.50
2023-01-18T15:38:45.751Z,23.50
2023-01-18T15:41:18.120Z,22.43
2023-01-18T15:43:48.993Z,21.83
2023-01-18T15:46:18.404Z,22.77
2023-01-18T15:48:50.220Z,22.10
2023-01-18T15:51:22.399Z,22.30
2023-01-18T15:53:56.257Z,23.17
2023-01-18T15:56:29.894Z,23.40
2023-01-18T15:59:01.388Z,23.20
2023-01-18T16:01:31.978Z,22.97
2023-01-18T16:04:04.178Z,22.27
2023-01-18T16:06:34.580Z,24.60
2023-01-18T16:09:10.497Z,24.50
2023-01-18T16:11:51.819Z,25.07
2023-01-18T16:14:23.700Z,25.50
2023-01-18T16:16:53.362Z,25.17
2023-01-18T16:19:28.469Z,25.60
2023-01-18T16:21:59.929Z,25.50
2023-01-18T16:24:35.253Z,24.73
2023-01-18T16:27:12.021Z,24.37
2023-01-18T16:29:46.963Z,25.27
2023-01-18T16:32:31.080Z,24.77
2023-01-18T16:35:01.010Z,25.00
2023-01-18T16:37:30.649Z,25.50
2023-01-18T16:39:58.785Z,25.07
2023-01-18T16:42:37.648Z,26.50
2023-01-18T16:45:13.387Z,26.23
2023-01-18T16:47:41.473Z,26.57
2023-01-18T16:50:15.372Z,27.97
2023-01-18T16:52:43.501Z,27.70
2023-01-18T16:55:13.619Z,28.13
2023-01-18T16:57:43.919Z,28.40
2023-01-18T17:00:18.201Z,28.67
2023-01-18T17:02:46.784Z,31.40
2023-01-18T17:05:15.814Z,32.27
2023-01-18T17:07:44.207Z,34.17
2023-01-18T17:10:21.027Z,33.13
2023-01-18T17:12:50.463Z,32.90
2023-01-18T17:15:20.103Z,32.00
2023-01-18T17:17:48.472Z,31.63
2023-01-18T17:20:19.184Z,31.40
2023-01-18T17:22:47.334Z,31.97
2023-01-18T17:25:16.297Z,32.70
2023-01-18T17:27:44.517Z,32.60
2023-01-18T17:30:15.979Z,31.40
2023-01-18T17:32:45.773Z,32.30
2023-01-18T17:35:14.924Z,30.93
2023-01-18T17:37:43.042Z,29.87
2023-01-18T17:40:19.583Z,30.17
2023-01-18T17:42:53.758Z,29.50
2023-01-18T17:45:23.273Z,28.77
2023-01-18T17:47:53.651Z,25.77
2023-01-18T17:50:24.909Z,26.63
2023-01-18T17:52:54.195Z,27.70
2023-01-18T17:55:27.388Z,26.30
2023-01-18T17:57:58.834Z,26.00
2023-01-18T18:00:28.359Z,25.37
2023-01-18T18:02:57.462Z,26.47
2023-01-18T18:05:26.225Z,27.40
2023-01-18T18:07:54.336Z,27.77
2023-01-18T18:10:22.426Z,26.70
2023-01-18T18:12:50.476Z,27.40
2023-01-18T18:15:22.301Z,26.90
2023-01-18T18:17:52.158Z,26.70
2023-01-18T18:20:22.093Z,26.70
2023-01-18T18:22:51.312Z,25.80
2023-01-18T18:25:19.520Z,25.27
2023-01-18T18:27:47.811Z,27.13
2023-01-18T18:30:17.644Z,27.63
2023-01-18T18:32:45.735Z,26.17
2023-01-18T18:35:24.849Z,27.80
2023-01-18T18:37:55.403Z,27.30
2023-01-18T18:40:24.057Z,29.30
2023-01-18T18:43:01.997Z,31.00
2023-01-18T18:45:32.147Z,32.53
2023-01-18T18:48:00.641Z,35.70
2023-01-18T18:50:31.482Z,37.03
2023-01-18T18:53:00.602Z,37.73
2023-01-18T18:55:29.286Z,35.70
2023-01-18T18:57:57.951Z,36.90
2023-01-18T19:00:27.498Z,39.40
2023-01-18T19:02:59.986Z,39.40
2023-01-18T19:05:30.715Z,41.03
2023-01-18T19:08:00.027Z,41.80
2023-01-18T19:10:30.589Z,43.00
2023-01-18T19:12:59.927Z,44.17
2023-01-18T19:15:29.111Z,45.20
2023-01-18T19:17:59.067Z,44.73
2023-01-18T19:20:27.616Z,44.20
2023-01-18T19:22:57.868Z,46.83
2023-01-18T19:25:26.941Z,48.50
2023-01-18T19:27:55.736Z,46.57
2023-01-18T19:30:24.120Z,47.53
2023-01-18T19:32:53.731Z,48.60
2023-01-18T19:35:22.304Z,47.87
2023-01-18T19:37:50.836Z,50.17
2023-01-18T19:40:21.763Z,47.93
2023-01-18T19:42:55.847Z,47.83
2023-01-18T19:45:28.112Z,47.53
2023-01-18T19:47:58.812Z,48.63
2023-01-18T19:50:28.200Z,48.53
2023-01-18T19:52:56.951Z,49.77
2023-01-18T19:55:26.645Z,50.33
2023-01-18T19:57:57.840Z,52.50
2023-01-18T20:00:26.803Z,52.43
2023-01-18T20:02:55.233Z,51.17
2023-01-18T20:05:24.064Z,51.40
2023-01-18T20:07:52.715Z,54.17
2023-01-18T20:10:21.146Z,53.60
2023-01-18T20:12:51.364Z,52.80
2023-01-18T20:15:21.305Z,53.57
2023-01-18T20:17:50.676Z,52.80
2023-01-18T20:20:31.356Z,54.00
2023-01-18T20:23:02.980Z,52.20
2023-01-18T20:25:32.587Z,52.63
2023-01-18T20:28:02.484Z,55.07
2023-01-18T20:30:30.798Z,53.93
2023-01-18T20:32:59.176Z,52.90
2023-01-18T20:35:27.508Z,53.30
2023-01-18T20:37:55.866Z,56.00
2023-01-18T20:40:24.083Z,56.30
2023-01-18T20:42:52.140Z,55.97
2023-01-18T20:45:21.592Z,55.43
2023-01-18T20:47:49.604Z,58.17
2023-01-18T20:50:18.956Z,56.27
2023-01-18T20:52:47.026Z,56.93
2023-01-18T20:55:16.524Z,54.97
2023-01-18T20:57:44.604Z,57.20
2023-01-18T21:00:14.133Z,60.13
2023-01-18T21:02:43.846Z,60.20
2023-01-18T21:05:12.199Z,57.90
2023-01-18T21:07:41.763Z,59.50
2023-01-18T21:10:11.854Z,58.73
2023-01-18T21:12:41.350Z,59.40
2023-01-18T21:15:10.453Z,59.50
2023-01-18T21:17:39.759Z,59.40
2023-01-18T21:20:11.081Z,61.17
2023-01-18T21:22:39.142Z,58.67
2023-01-18T21:25:08.642Z,61.17
2023-01-18T21:27:36.783Z,62.40
2023-01-18T21:30:05.623Z,61.53
2023-01-18T21:32:33.750Z,62.90
2023-01-18T21:35:01.696Z,60.83
2023-01-18T21:37:31.255Z,61.90
2023-01-18T21:40:00.666Z,63.07
2023-01-18T21:42:46.309Z,63.37
2023-01-18T21:45:32.941Z,62.47
2023-01-18T21:48:01.684Z,62.30
2023-01-18T21:50:47.530Z,59.50
2023-01-18T21:53:34.586Z,60.83
2023-01-18T21:56:02.703Z,62.60
2023-01-18T21:58:48.486Z,62.13
2023-01-18T22:01:18.790Z,61.77
2023-01-18T22:04:04.318Z,64.00
2023-01-18T22:06:32.508Z,64.37
2023-01-18T22:09:02.102Z,63.20
2023-01-18T22:11:30.138Z,64.50
2023-01-18T22:13:58.437Z,62.67
2023-01-18T22:16:30.400Z,61.33
2023-01-18T22:18:59.228Z,63.20
2023-01-18T22:21:29.287Z,64.63
2023-01-18T22:23:57.381Z,66.60
2023-01-18T22:26:29.297Z,67.80
2023-01-18T22:28:58.218Z,67.87
2023-01-18T22:31:27.122Z,70.93
2023-01-18T22:33:57.333Z,70.10
2023-01-18T22:36:25.787Z,73.07
2023-01-18T22:38:54.542Z,69.10
2023-01-18T22:41:24.528Z,70.63
2023-01-18T22:43:55.298Z,74.80
2023-01-18T22:46:24.441Z,74.20
2023-01-18T22:48:52.919Z,75.27
2023-01-18T22:51:23.597Z,73.03
2023-01-18T22:53:52.201Z,72.50
2023-01-18T22:56:22.952Z,69.57
2023-01-18T22:58:51.460Z,70.47
2023-01-18T23:01:24.894Z,71.17
2023-01-18T23:03:54.355Z,69.70
2023-01-18T23:06:22.998Z,70.10
2023-01-18T23:08:52.103Z,71.57
2023-01-18T23:11:22.598Z,70.80
2023-01-18T23:14:10.352Z,69.20
2023-01-18T23:17:11.860Z,67.53
2023-01-18T23:19:40.102Z,67.17
2023-01-18T23:22:08.352Z,69.50
2023-01-18T23:24:37.847Z,71.10
2023-01-18T23:27:08.036Z,70.50
2023-01-18T23:29:36.177Z,67.43
2023-01-18T23:32:06.438Z,67.93
2023-01-18T23:34:34.555Z,69.00
2023-01-18T23:37:02.903Z,62.43
2023-01-18T23:39:48.720Z,72.83
2023-01-18T23:42:33.986Z,64.30
2023-01-18T23:45:19.404Z,65.97
2023-01-18T23:48:06.369Z,74.00
2023-01-18T23:50:51.768Z,70.70
2023-01-18T23:53:37.306Z,67.60
2023-01-18T23:56:05.505Z,60.17
2023-01-18T23:58:33.612Z,63.00
